Time;durP1;ratioP1;P1;durP2;ratioP2;P2;SDS_P1;SDS_P2;PMS_P1;PMS_P2;Temp;Humidity;BMP_temperature;BMP_pressure;BME280_temperature;BME280_humidity;BME280_pressure;Samples;Min_cycle;Max_cycle;Signal;HPM_P1;HPM_P2
2021/08/17 00:00:43;;;;;;;11.77;6.83;;;;;;;10.14;92.05;101630.03;2097621;28;20500;-59
2021/08/17 00:01:43;;;;;;;10.17;6.03;;;;;;;10.15;92.34;101634.34;2097708;28;20016;-60
2021/08/17 00:02:43;;;;;;;11.53;6.77;;;;;;;10.18;92.49;101634.25;2106666;28;20028;-59
2021/08/17 00:03:44;;;;;;;14.50;7.13;;;;;;;10.18;92.18;101629.03;2106622;28;20024;-58
2021/08/17 00:04:44;;;;;;;11.47;6.67;;;;;;;10.17;92.78;101632.56;2106679;28;20028;-60
2021/08/17 00:05:44;;;;;;;14.53;6.77;;;;;;;10.19;92.59;101630.75;2097530;28;20035;-60
2021/08/17 00:06:44;;;;;;;13.10;7.10;;;;;;;10.18;92.00;101629.03;2097680;28;20024;-59
2021/08/17 00:07:45;;;;;;;13.20;6.90;;;;;;;10.18;92.86;101635.13;2106670;28;20454;-60
2021/08/17 00:08:45;;;;;;;10.97;6.73;;;;;;;10.20;92.68;101639.44;2106770;28;20038;-59
2021/08/17 00:09:46;;;;;;;11.20;6.55;;;;;;;10.20;92.63;101624.66;2097657;28;20507;-60
2021/08/17 00:10:46;;;;;;;11.20;6.70;;;;;;;10.18;92.44;101634.25;2097735;28;20036;-59
2021/08/17 00:11:46;;;;;;;13.27;7.20;;;;;;;10.18;92.40;101631.66;2106390;28;20086;-60
2021/08/17 00:12:47;;;;;;;16.83;6.33;;;;;;;10.18;92.42;101635.13;2106652;28;20042;-59
2021/08/17 00:13:47;;;;;;;15.03;7.43;;;;;;;10.19;92.96;101633.34;2106624;28;20028;-60
2021/08/17 00:14:49;;;;;;;13.13;6.30;;;;;;;10.18;92.47;101629.03;2106640;28;20073;-59
2021/08/17 00:15:49;;;;;;;14.40;8.10;;;;;;;10.18;92.54;101629.03;2106599;28;20026;-58
2021/08/17 00:16:50;;;;;;;13.83;7.30;;;;;;;10.17;92.77;101628.16;2106593;28;20035;-58
2021/08/17 00:17:50;;;;;;;16.07;7.30;;;;;;;10.20;92.88;101632.47;2106572;28;20285;-59
2021/08/17 00:18:50;;;;;;;13.33;7.13;;;;;;;10.19;93.05;101630.75;2106575;28;20032;-58
2021/08/17 00:19:51;;;;;;;12.53;7.73;;;;;;;10.19;93.06;101620.31;2106789;28;20024;-59
2021/08/17 00:20:51;;;;;;;11.70;7.47;;;;;;;10.21;93.27;101628.09;2106618;28;20028;-59
2021/08/17 00:21:51;;;;;;;13.70;8.57;;;;;;;10.19;93.21;101625.53;2106537;28;20084;-59
2021/08/17 00:22:51;;;;;;;13.87;7.50;;;;;;;10.19;92.95;101620.31;2106752;28;20103;-59
2021/08/17 00:23:52;;;;;;;18.57;10.40;;;;;;;10.21;93.44;101618.53;2106508;28;20036;-60
2021/08/17 00:24:52;;;;;;;18.88;10.95;;;;;;;10.25;93.92;101617.53;2106581;28;20048;-59
2021/08/17 00:25:53;;;;;;;13.55;9.82;;;;;;;10.25;93.37;101619.28;2106418;28;20473;-60
2021/08/17 00:26:53;;;;;;;15.17;8.80;;;;;;;10.25;93.15;101617.53;2106559;28;20103;-60
2021/08/17 00:27:53;;;;;;;14.97;9.00;;;;;;;10.25;93.58;101617.53;2106551;28;20028;-58
2021/08/17 00:28:53;;;;;;;16.70;9.47;;;;;;;10.26;93.74;101619.25;2106581;28;20027;-59
2021/08/17 00:29:54;;;;;;;18.07;10.27;;;;;;;10.26;93.88;101621.84;2106531;28;20046;-59
2021/08/17 00:30:54;;;;;;;19.23;11.57;;;;;;;10.28;93.85;101614.84;2106623;28;20028;-59
2021/08/17 00:31:54;;;;;;;17.23;10.70;;;;;;;10.29;93.82;101616.53;2107616;28;20150;-58
2021/08/17 00:32:55;;;;;;;16.80;10.50;;;;;;;10.32;94.07;101615.59;2108093;28;20031;-60
2021/08/17 00:33:55;;;;;;;20.10;13.00;;;;;;;10.35;93.56;101619.88;2108094;28;20527;-60
2021/08/17 00:34:56;;;;;;;23.93;14.17;;;;;;;10.35;93.77;101618.13;2108144;28;20028;-58
2021/08/17 00:35:57;;;;;;;18.92;10.90;;;;;;;10.33;93.81;101616.47;2108071;28;20055;-60
2021/08/17 00:36:57;;;;;;;16.67;11.73;;;;;;;10.33;93.96;101621.69;2108034;28;20020;-59
2021/08/17 00:38:00;;;;;;;19.38;10.55;;;;;;;10.30;93.78;101612.19;2108154;28;20027;-59
2021/08/17 00:39:01;;;;;;;19.27;9.93;;;;;;;10.30;93.85;101612.19;2108061;28;20062;-59
2021/08/17 00:40:01;;;;;;;20.40;12.30;;;;;;;10.29;93.54;101611.31;2107950;28;20276;-59
2021/08/17 00:41:02;;;;;;;15.90;9.23;;;;;;;10.30;93.81;101613.03;2099020;28;20047;-59
2021/08/17 00:42:04;;;;;;;22.92;11.77;;;;;;;10.33;93.54;101611.25;2090724;28;20017;-59
2021/08/17 00:43:08;;;;;;;21.48;13.43;;;;;;;10.35;94.12;101614.66;2099412;28;20060;-59
2021/08/17 00:44:37;;;;;;;21.10;12.95;;;;;;;10.34;94.16;101612.94;2107868;28;20099;-60
2021/08/17 00:45:38;;;;;;;18.48;9.93;;;;;;;10.34;93.94;101608.59;2086071;28;20590;-59
2021/08/17 00:46:38;;;;;;;20.43;11.07;;;;;;;10.34;93.99;101599.91;2107873;28;20066;-58
2021/08/17 00:47:39;;;;;;;17.17;11.17;;;;;;;10.36;94.41;101605.91;2107844;28;20101;-59
2021/08/17 00:48:40;;;;;;;;;;;;;;;10.38;94.24;101601.53;2108478;28;20479;-59
2021/08/17 00:49:40;;;;;;;22.63;13.50;;;;;;;10.46;94.26;101602.19;2107962;28;19922;-60
2021/08/17 00:50:40;;;;;;;21.17;10.80;;;;;;;10.47;94.33;101596.06;2098963;28;20489;-59
2021/08/17 00:51:41;;;;;;;23.23;11.77;;;;;;;10.48;94.60;101600.38;2099150;28;20048;-59
2021/08/17 00:52:42;;;;;;;20.00;12.48;;;;;;;10.48;94.51;101600.38;2098924;28;20074;-59
2021/08/17 00:53:43;;;;;;;18.27;8.98;;;;;;;10.46;94.70;101596.97;2099038;28;20107;-59
2021/08/17 00:54:44;;;;;;;20.73;11.85;;;;;;;10.49;94.63;101596.88;2107886;28;20056;-59
2021/08/17 00:55:44;;;;;;;22.17;12.60;;;;;;;10.50;94.46;101588.13;2108003;28;20032;-59
2021/08/17 00:56:45;;;;;;;21.73;11.87;;;;;;;10.48;94.36;101589.94;2107980;28;20590;-59
2021/08/17 00:57:46;;;;;;;22.38;13.00;;;;;;;10.51;94.22;101589.84;2107981;28;20048;-60
2021/08/17 00:58:46;;;;;;;27.52;13.40;;;;;;;10.50;94.77;101588.13;2107887;28;20038;-60
2021/08/17 00:59:46;;;;;;;18.67;11.30;;;;;;;10.51;94.25;101595.06;2107926;28;20016;-60
2021/08/17 01:00:48;;;;;;;26.60;12.70;;;;;;;10.52;94.82;101586.34;2107772;28;20481;-59
2021/08/17 01:01:49;;;;;;;25.38;13.95;;;;;;;10.53;94.61;101593.25;2098761;28;20340;-60
2021/08/17 01:02:49;;;;;;;21.67;11.65;;;;;;;10.51;94.55;101587.22;2098863;28;20085;-59
2021/08/17 01:03:49;;;;;;;23.38;14.50;;;;;;;10.51;94.37;101589.84;2107815;28;20053;-59
2021/08/17 01:04:50;;;;;;;20.53;11.73;;;;;;;10.50;94.43;101588.13;2107851;28;20016;-60
2021/08/17 01:05:50;;;;;;;22.57;14.40;;;;;;;10.50;94.40;101589.91;2107867;28;20069;-59
2021/08/17 01:06:50;;;;;;;21.40;12.00;;;;;;;10.50;94.20;101588.13;2107882;28;20036;-58
2021/08/17 01:07:51;;;;;;;24.47;12.70;;;;;;;10.51;94.83;101592.44;2107938;28;20035;-59
2021/08/17 01:08:51;;;;;;;26.67;13.67;;;;;;;10.55;94.57;101591.44;2107828;28;20036;-59
2021/08/17 01:09:51;;;;;;;27.90;13.83;;;;;;;10.55;94.82;101588.84;2107807;28;20305;-59
2021/08/17 01:10:51;;;;;;;26.37;13.60;;;;;;;10.58;94.49;101587.06;2107857;28;20027;-59
2021/08/17 01:11:52;;;;;;;20.80;12.53;;;;;;;10.58;94.67;101587.06;2107611;28;20081;-59
2021/08/17 01:12:52;;;;;;;22.03;13.10;;;;;;;10.59;94.92;101591.34;2098815;28;20494;-59
2021/08/17 01:13:53;;;;;;;23.00;11.10;;;;;;;10.57;94.22;101583.56;2098918;28;20466;-58
2021/08/17 01:14:53;;;;;;;28.52;14.43;;;;;;;10.59;94.79;101587.00;2107730;28;20060;-59
2021/08/17 01:15:54;;;;;;;19.10;10.87;;;;;;;10.58;94.61;101595.75;2107734;28;20385;-59
2021/08/17 01:16:54;;;;;;;;;;;;;;;10.56;94.29;101590.56;2108213;28;20032;-59
2021/08/17 01:17:55;;;;;;;24.25;12.80;;;;;;;10.56;94.77;101590.56;2098749;28;19958;-59
2021/08/17 01:18:55;;;;;;;21.97;12.20;;;;;;;10.56;94.61;101598.41;2090465;28;20119;-60
2021/08/17 01:19:55;;;;;;;25.27;13.67;;;;;;;10.59;94.32;101596.59;2098736;28;20074;-59
2021/08/17 01:20:58;;;;;;;27.23;14.05;;;;;;;10.60;94.74;101590.47;2107710;28;20112;-59
2021/08/17 01:21:59;;;;;;;28.83;15.00;;;;;;;10.60;94.53;101588.72;2107778;28;20473;-59
2021/08/17 01:22:59;;;;;;;25.83;12.15;;;;;;;10.61;94.71;101595.63;2107918;28;20036;-59
2021/08/17 01:24:00;;;;;;;22.73;13.17;;;;;;;10.60;94.07;101598.31;2107562;28;20028;-59
2021/08/17 01:25:00;;;;;;;25.52;13.65;;;;;;;10.60;94.52;101599.16;2107622;28;20035;-59
2021/08/17 01:26:00;;;;;;;20.73;11.53;;;;;;;10.61;94.95;101592.19;2098593;28;20032;-59
2021/08/17 01:27:01;;;;;;;24.20;14.87;;;;;;;10.62;94.95;101591.28;2098772;28;20044;-59
2021/08/17 01:28:01;;;;;;;21.87;13.87;;;;;;;10.61;94.71;101602.63;2107692;28;20034;-58
2021/08/17 01:29:01;;;;;;;20.53;12.17;;;;;;;10.60;94.44;101598.31;2107706;28;20473;-59
2021/08/17 01:30:03;;;;;;;28.60;14.23;;;;;;;10.59;94.26;101599.19;2107662;28;20032;-58
2021/08/17 01:31:06;;;;;;;22.05;12.40;;;;;;;10.57;94.49;101599.22;2098579;28;20024;-59
2021/08/17 01:32:08;;;;;;;22.52;13.48;;;;;;;10.57;94.32;101594.00;2090444;28;20029;-59
2021/08/17 01:33:08;;;;;;;22.48;11.80;;;;;;;10.59;94.59;101607.03;2098815;28;20111;-58
2021/08/17 01:34:08;;;;;;;22.00;13.20;;;;;;;10.59;94.02;101596.59;2107617;28;20473;-59
2021/08/17 01:35:09;;;;;;;26.57;13.63;;;;;;;10.61;94.52;101607.84;2107691;28;20106;-59
2021/08/17 01:36:09;;;;;;;26.17;13.13;;;;;;;10.60;94.44;101599.16;2107559;28;20102;-59
2021/08/17 01:37:10;;;;;;;23.73;12.23;;;;;;;10.60;94.41;101603.53;2107630;28;20066;-59
2021/08/17 01:38:10;;;;;;;27.97;14.17;;;;;;;10.63;94.98;101608.63;2107757;28;20058;-59
2021/08/17 01:39:11;;;;;;;24.23;13.60;;;;;;;10.63;94.60;101611.25;2107696;28;20024;-59
2021/08/17 01:40:12;;;;;;;27.25;14.45;;;;;;;10.65;94.89;101612.06;2098584;28;20027;-59
2021/08/17 01:41:12;;;;;;;30.17;15.23;;;;;;;10.65;94.82;101606.84;2098747;28;20025;-59
2021/08/17 01:42:13;;;;;;;29.73;15.50;;;;;;;10.63;95.24;101604.28;2107554;28;20411;-59
2021/08/17 01:43:13;;;;;;;25.83;13.43;;;;;;;10.65;94.46;101604.25;2106854;28;20024;-59
2021/08/17 01:44:15;;;;;;;36.97;17.40;;;;;;;10.67;94.77;101607.63;2107516;28;20024;-59
2021/08/17 01:45:16;;;;;;;29.15;14.60;;;;;;;10.67;95.15;101611.13;2107578;28;20692;-58
2021/08/17 01:46:17;;;;;;;30.15;14.18;;;;;;;10.68;95.18;101604.16;2107486;28;20032;-60
2021/08/17 01:47:17;;;;;;;28.05;14.68;;;;;;;10.67;94.47;101600.69;2107499;28;20046;-59
2021/08/17 01:48:17;;;;;;;29.47;17.43;;;;;;;10.67;94.69;101602.41;2107367;28;20016;-59
2021/08/17 01:49:18;;;;;;;26.43;14.17;;;;;;;10.68;94.89;101605.00;2098496;28;20053;-60
2021/08/17 01:50:18;;;;;;;17.65;8.05;;;;;;;10.69;94.56;101601.50;2098541;28;20031;-59
2021/08/17 01:51:19;;;;;;;28.75;15.77;;;;;;;10.75;95.13;101605.69;2107516;28;20031;-59
2021/08/17 01:52:19;;;;;;;21.77;13.93;;;;;;;10.77;94.49;101603.84;2107400;28;20489;-60
2021/08/17 01:53:21;;;;;;;26.83;14.40;;;;;;;10.78;94.84;101604.72;2107541;28;20097;-59
2021/08/17 01:54:22;;;;;;;22.20;13.02;;;;;;;10.77;95.10;101603.84;2107482;28;20016;-59
2021/08/17 01:55:22;;;;;;;23.13;14.53;;;;;;;10.80;94.76;101600.28;2107424;28;20048;-59
2021/08/17 01:56:22;;;;;;;25.75;16.58;;;;;;;10.80;94.74;101601.16;2098415;28;20048;-59
2021/08/17 01:57:23;;;;;;;26.80;14.90;;;;;;;10.81;94.49;101605.47;2098493;28;20020;-60
2021/08/17 01:58:25;;;;;;;22.95;12.43;;;;;;;10.84;94.69;101606.28;2098335;28;20580;-59
2021/08/17 01:59:25;;;;;;;23.05;12.60;;;;;;;10.85;94.70;101602.75;2098611;28;20028;-58
2021/08/17 02:00:25;;;;;;;26.23;13.90;;;;;;;10.85;94.96;101603.63;2107393;28;20020;-59
2021/08/17 02:01:26;;;;;;;24.03;13.73;;;;;;;10.88;94.51;101610.50;2107436;28;20047;-59
2021/08/17 02:02:27;;;;;;;26.30;13.60;;;;;;;10.88;94.17;101603.50;2107430;28;20063;-60
2021/08/17 02:03:27;;;;;;;20.08;11.77;;;;;;;10.88;94.48;101602.69;2107349;28;20044;-61
2021/08/17 02:04:28;;;;;;;28.03;14.90;;;;;;;10.90;94.51;101606.94;2098366;28;20075;-60
2021/08/17 02:05:28;;;;;;;23.33;14.02;;;;;;;10.93;94.72;101609.47;2098426;28;20020;-59
2021/08/17 02:06:28;;;;;;;27.47;15.10;;;;;;;10.99;94.61;101605.81;2107229;28;20388;-60
2021/08/17 02:07:29;;;;;;;28.37;16.10;;;;;;;11.03;94.61;101612.63;2107380;28;20020;-58
2021/08/17 02:08:29;;;;;;;24.17;15.20;;;;;;;11.05;95.01;101610.81;2107412;28;20020;-59
2021/08/17 02:09:30;;;;;;;25.02;13.95;;;;;;;11.07;94.96;101611.63;2107385;28;20019;-59
2021/08/17 02:10:31;;;;;;;28.73;15.95;;;;;;;11.11;94.92;101614.97;2107290;28;20063;-59
2021/08/17 02:11:31;;;;;;;27.60;15.38;;;;;;;11.14;94.41;101611.41;2107083;28;20070;-59
2021/08/17 02:12:31;;;;;;;26.97;14.53;;;;;;;11.15;94.98;101610.53;2107285;28;20028;-59
2021/08/17 02:13:33;;;;;;;30.00;14.53;;;;;;;11.21;94.91;101607.69;2098388;28;20162;-60
2021/08/17 02:14:33;;;;;;;;;;;;;;;11.23;95.06;101612.88;2098876;28;20535;-58
2021/08/17 02:15:33;;;;;;;29.43;16.03;;;;;;;11.26;94.15;101618.00;2107337;28;19966;-59
2021/08/17 02:16:33;;;;;;;25.60;15.57;;;;;;;11.26;94.84;101616.22;2107237;28;20313;-59
2021/08/17 02:17:34;;;;;;;29.00;15.33;;;;;;;11.28;94.29;101613.56;2107268;28;20036;-59
2021/08/17 02:18:37;;;;;;;25.67;15.83;;;;;;;11.29;94.55;101613.53;2107303;28;20111;-59
2021/08/17 02:19:37;;;;;;;29.48;15.80;;;;;;;11.30;94.62;101609.16;2107328;28;20028;-58
2021/08/17 02:20:38;;;;;;;28.93;16.07;;;;;;;11.30;94.07;101620.44;2107263;28;20030;-59
2021/08/17 02:21:38;;;;;;;26.00;15.40;;;;;;;11.35;94.29;101616.88;2107248;28;20030;-59
2021/08/17 02:22:39;;;;;;;24.20;13.90;;;;;;;11.35;94.87;101603.78;2107309;28;20469;-59
2021/08/17 02:23:39;;;;;;;23.60;13.33;;;;;;;11.36;94.22;101610.72;2107271;28;20039;-58
2021/08/17 02:24:40;;;;;;;26.23;16.57;;;;;;;11.38;94.68;101616.72;2107137;28;20020;-58
2021/08/17 02:25:41;;;;;;;31.02;18.08;;;;;;;11.35;93.99;101617.69;2107236;28;20214;-59
2021/08/17 02:26:41;;;;;;;24.70;16.45;;;;;;;11.35;94.03;101607.25;2107152;28;20137;-59
2021/08/17 02:27:42;;;;;;;25.83;14.50;;;;;;;11.32;94.13;101613.44;2107247;28;20028;-58
2021/08/17 02:28:42;;;;;;;25.55;15.07;;;;;;;11.31;94.03;101614.34;2098127;28;20555;-58
2021/08/17 02:29:42;;;;;;;28.30;16.53;;;;;;;11.30;93.87;101611.78;2098244;28;20441;-59
2021/08/17 02:30:43;;;;;;;22.87;14.47;;;;;;;11.28;94.09;101611.81;2107103;28;20062;-59
2021/08/17 02:31:43;;;;;;;25.80;15.63;;;;;;;11.26;93.47;101613.63;2098112;28;20024;-59
2021/08/17 02:32:43;;;;;;;26.53;16.20;;;;;;;11.23;93.65;101608.53;2098200;28;20066;-59
2021/08/17 02:33:44;;;;;;;22.30;14.53;;;;;;;11.24;93.87;101619.81;2107070;28;20055;-59
2021/08/17 02:34:44;;;;;;;26.90;16.47;;;;;;;11.25;94.17;101617.16;2107176;28;20027;-59
2021/08/17 02:35:45;;;;;;;29.50;15.73;;;;;;;11.22;94.01;101617.25;2107099;28;20434;-59
2021/08/17 02:36:45;;;;;;;25.17;16.42;;;;;;;11.23;93.86;101618.97;2107149;28;20022;-59
2021/08/17 02:37:45;;;;;;;25.03;17.53;;;;;;;11.23;93.91;101613.75;2107148;28;20538;-59
2021/08/17 02:38:46;;;;;;;27.33;16.67;;;;;;;11.23;94.31;101613.75;2107202;28;20036;-59
2021/08/17 02:39:46;;;;;;;27.03;15.40;;;;;;;11.22;93.91;101617.25;2107157;28;20024;-59
2021/08/17 02:40:46;;;;;;;26.20;14.90;;;;;;;11.21;93.86;101612.94;2107122;28;20492;-60
2021/08/17 02:41:46;;;;;;;22.13;13.20;;;;;;;11.19;94.24;101607.75;2107132;28;20023;-59
2021/08/17 02:42:47;;;;;;;27.07;14.70;;;;;;;11.19;93.89;101606.91;2107157;28;20047;-59
2021/08/17 02:43:47;;;;;;;25.03;15.17;;;;;;;11.17;94.00;101608.72;2107097;28;20048;-59
2021/08/17 02:44:47;;;;;;;20.83;12.73;;;;;;;11.18;94.24;101610.41;2107126;28;20465;-59
2021/08/17 02:45:47;;;;;;;26.17;13.70;;;;;;;11.16;94.31;101604.41;2106966;28;20028;-60
2021/08/17 02:46:48;;;;;;;22.60;12.43;;;;;;;11.15;94.34;101610.53;2107039;28;20070;-59
2021/08/17 02:47:48;;;;;;;28.13;16.60;;;;;;;11.18;94.31;101610.41;2107048;28;20054;-59
2021/08/17 02:48:48;;;;;;;22.87;13.57;;;;;;;11.18;93.99;101618.25;2097936;28;20025;-58
2021/08/17 02:49:49;;;;;;;22.47;13.90;;;;;;;11.20;93.70;101613.84;2097963;28;20062;-59
2021/08/17 02:50:49;;;;;;;20.40;11.03;;;;;;;11.22;93.92;101611.19;2106946;28;20065;-59
2021/08/17 02:51:49;;;;;;;21.97;14.03;;;;;;;11.22;94.36;101609.41;2107018;28;20081;-60
2021/08/17 02:52:50;;;;;;;23.50;14.23;;;;;;;11.23;94.07;101615.50;2107137;28;20358;-59
2021/08/17 02:53:50;;;;;;;22.08;13.57;;;;;;;11.24;94.28;101610.22;2098135;28;20028;-60
2021/08/17 02:54:51;;;;;;;25.80;14.30;;;;;;;11.23;94.40;101613.75;2098025;28;20023;-59
2021/08/17 02:55:51;;;;;;;23.88;13.93;;;;;;;11.22;94.26;101614.63;2106988;28;20461;-59
2021/08/17 02:56:52;;;;;;;30.37;14.73;;;;;;;11.19;94.05;101620.81;2107010;28;20016;-60
2021/08/17 02:57:55;;;;;;;26.20;16.02;;;;;;;11.19;94.10;101609.53;2106964;28;20469;-60
2021/08/17 02:58:55;;;;;;;24.52;14.93;;;;;;;11.20;94.33;101611.22;2106981;28;20020;-60
2021/08/17 02:59:55;;;;;;;28.40;16.73;;;;;;;11.21;94.05;101615.53;2106974;28;20035;-59
2021/08/17 03:00:56;;;;;;;25.50;16.30;;;;;;;11.21;93.96;101615.53;2106987;28;20066;-60
2021/08/17 03:01:56;;;;;;;26.30;14.93;;;;;;;11.23;94.49;101611.13;2106875;28;20028;-59
2021/08/17 03:02:56;;;;;;;26.70;14.03;;;;;;;11.23;94.83;101611.13;2097881;28;20031;-59
2021/08/17 03:03:56;;;;;;;25.00;16.47;;;;;;;11.23;94.12;101607.66;2097937;28;20032;-59
2021/08/17 03:04:57;;;;;;;30.03;15.90;;;;;;;11.23;94.18;101607.66;2106795;28;20016;-59
2021/08/17 03:05:57;;;;;;;26.40;16.03;;;;;;;11.22;94.11;101622.47;2106888;28;20605;-60
2021/08/17 03:06:57;;;;;;;26.80;15.33;;;;;;;11.19;94.24;101612.97;2106990;28;20024;-59
2021/08/17 03:08:05;;;;;;;27.30;13.67;;;;;;;11.18;94.26;101619.13;2107037;28;20062;-58
2021/08/17 03:09:05;;;;;;;24.95;13.80;;;;;;;11.17;94.50;101620.03;2106917;28;20112;-60
2021/08/17 03:10:06;;;;;;;26.80;16.30;;;;;;;11.20;94.58;101613.84;2106907;28;20032;-59
2021/08/17 03:11:06;;;;;;;28.40;15.07;;;;;;;11.22;94.58;101619.03;2106742;28;20032;-59
2021/08/17 03:12:07;;;;;;;28.30;14.83;;;;;;;11.19;94.50;101619.97;2106949;28;20035;-59
2021/08/17 03:13:08;;;;;;;26.45;14.02;;;;;;;11.17;95.03;101622.63;2106875;28;20023;-59
2021/08/17 03:14:08;;;;;;;32.35;15.15;;;;;;;11.16;94.95;101617.47;2106813;28;20062;-59
2021/08/17 03:15:09;;;;;;;25.88;13.65;;;;;;;11.16;94.03;101617.47;2106958;28;20016;-60
2021/08/17 03:16:09;;;;;;;27.08;14.10;;;;;;;11.15;93.98;101611.38;2106802;28;20020;-59
2021/08/17 03:17:09;;;;;;;25.90;12.80;;;;;;;11.15;94.55;101619.22;2106852;28;20101;-59
2021/08/17 03:18:10;;;;;;;26.80;13.33;;;;;;;11.15;93.77;101615.75;2097858;28;20063;-59
2021/08/17 03:19:10;;;;;;;24.47;13.80;;;;;;;11.16;94.16;101607.84;2097938;28;20021;-59
2021/08/17 03:20:12;;;;;;;29.10;13.93;;;;;;;11.14;94.36;101607.06;2106854;28;20024;-60
2021/08/17 03:21:13;;;;;;;24.98;13.40;;;;;;;11.15;94.81;101605.31;2106908;28;20061;-59
2021/08/17 03:22:13;;;;;;;21.80;11.60;;;;;;;11.18;94.20;101611.28;2106439;28;20500;-59
2021/08/17 03:23:16;;;;;;;24.57;13.50;;;;;;;11.18;94.27;101610.41;2098514;28;20028;-59
2021/08/17 03:24:16;;;;;;;26.80;15.50;;;;;;;11.17;94.78;101612.19;2106833;28;20020;-59
2021/08/17 03:25:17;;;;;;;22.27;13.17;;;;;;;11.18;94.43;101610.41;2106859;28;20024;-59
2021/08/17 03:26:17;;;;;;;23.20;12.10;;;;;;;11.18;94.43;101603.44;2106776;28;20036;-59
2021/08/17 03:27:17;;;;;;;25.53;13.47;;;;;;;11.17;94.68;101603.47;2106861;28;20016;-58
2021/08/17 03:28:17;;;;;;;26.57;13.70;;;;;;;11.17;94.25;101600.88;2106835;28;20066;-59
2021/08/17 03:29:20;;;;;;;27.93;15.17;;;;;;;11.18;94.61;101605.19;2106879;28;20027;-60
2021/08/17 03:30:21;;;;;;;20.63;11.77;;;;;;;11.17;94.68;101595.66;2106786;28;20057;-59
2021/08/17 03:31:21;;;;;;;21.30;11.98;;;;;;;11.18;94.52;101600.81;2106710;28;20047;-59
2021/08/17 03:32:22;;;;;;;23.90;14.27;;;;;;;11.19;94.28;101601.69;2106718;28;20515;-59
2021/08/17 03:33:22;;;;;;;26.73;14.50;;;;;;;11.19;94.22;101606.91;2097714;28;20016;-59
2021/08/17 03:34:22;;;;;;;25.03;14.43;;;;;;;11.18;94.60;101602.56;2097907;28;20086;-59
2021/08/17 03:35:23;;;;;;;24.93;13.77;;;;;;;11.19;94.32;101601.69;2106785;28;20068;-60
2021/08/17 03:36:23;;;;;;;28.60;15.32;;;;;;;11.17;94.57;101593.03;2106855;28;20453;-59
2021/08/17 03:37:23;;;;;;;23.77;13.47;;;;;;;11.18;94.31;101594.72;2097584;28;20371;-59
2021/08/17 03:38:24;;;;;;;21.33;12.93;;;;;;;11.19;94.84;101601.69;2097844;28;20051;-59
2021/08/17 03:39:24;;;;;;;23.48;14.05;;;;;;;11.19;94.18;101593.84;2106748;28;20107;-58
2021/08/17 03:40:24;;;;;;;26.17;14.50;;;;;;;11.19;94.19;101591.25;2106792;28;20031;-60
2021/08/17 03:41:24;;;;;;;26.73;14.30;;;;;;;11.19;94.41;101591.25;2106770;28;20031;-59
2021/08/17 03:42:29;;;;;;;23.30;13.30;;;;;;;11.19;94.49;101591.25;2106775;28;20035;-60
2021/08/17 03:43:31;;;;;;;22.08;13.27;;;;;;;11.19;94.56;101602.53;2106922;28;20023;-59
2021/08/17 03:44:32;;;;;;;26.25;12.65;;;;;;;11.20;94.44;101598.16;2106623;28;20051;-59
2021/08/17 03:45:32;;;;;;;23.83;13.50;;;;;;;11.18;94.18;101599.97;2106720;28;20496;-60
2021/08/17 03:46:32;;;;;;;29.42;14.68;;;;;;;11.16;94.53;101602.63;2106639;28;20035;-60
2021/08/17 03:47:33;;;;;;;27.60;14.27;;;;;;;11.16;94.34;101601.78;2106605;28;20110;-60
2021/08/17 03:48:34;;;;;;;25.03;14.87;;;;;;;11.17;95.03;101598.25;2106743;28;20024;-60
2021/08/17 03:49:34;;;;;;;25.08;15.32;;;;;;;11.16;94.73;101593.94;2097667;28;20370;-60
2021/08/17 03:50:35;;;;;;;24.40;14.77;;;;;;;11.15;94.34;101592.25;2097775;28;20020;-60
2021/08/17 03:51:35;;;;;;;24.67;15.53;;;;;;;11.14;94.70;101587.91;2097705;28;20029;-60
2021/08/17 03:52:35;;;;;;;22.97;14.37;;;;;;;11.12;94.55;101585.34;2097752;28;20099;-60
2021/08/17 03:53:36;;;;;;;24.17;11.67;;;;;;;11.10;94.18;101584.56;2106764;28;20523;-60
2021/08/17 03:54:36;;;;;;;15.23;8.38;;;;;;;11.11;94.54;101582.78;2097615;28;20067;-59
2021/08/17 03:55:37;;;;;;;20.27;12.53;;;;;;;11.12;94.26;101594.94;2097796;28;20024;-59
2021/08/17 03:56:37;;;;;;;23.57;12.27;;;;;;;11.11;94.43;101585.38;2106639;28;20016;-58
2021/08/17 03:57:37;;;;;;;22.27;13.00;;;;;;;11.08;94.57;101578.50;2106803;28;20560;-59
2021/08/17 03:58:37;;;;;;;20.27;13.57;;;;;;;11.09;94.58;101585.47;2106734;28;20052;-59
2021/08/17 03:59:38;;;;;;;20.20;13.87;;;;;;;11.06;94.95;101581.16;2106706;28;20058;-60
2021/08/17 04:00:38;;;;;;;24.83;13.38;;;;;;;11.04;94.63;101588.22;2106664;28;20048;-59
2021/08/17 04:01:39;;;;;;;21.07;11.70;;;;;;;11.01;94.47;101577.88;2106765;28;20032;-60
2021/08/17 04:02:41;;;;;;;26.20;15.57;;;;;;;11.00;94.02;101591.84;2106574;28;20282;-60
2021/08/17 04:03:41;;;;;;;23.40;13.80;;;;;;;10.99;94.59;101590.13;2106662;28;20050;-58
2021/08/17 04:04:41;;;;;;;23.03;12.73;;;;;;;10.97;94.29;101586.69;2106723;28;20108;-58
2021/08/17 04:05:41;;;;;;;18.83;11.83;;;;;;;10.99;94.57;101584.03;2106674;28;20027;-58
2021/08/17 04:06:42;;;;;;;23.10;12.07;;;;;;;10.96;94.33;101585.00;2107498;28;20028;-60
2021/08/17 04:07:42;;;;;;;19.57;11.53;;;;;;;10.95;94.42;101578.91;2108371;28;20024;-60
2021/08/17 04:08:42;;;;;;;21.67;12.15;;;;;;;10.93;94.62;101585.97;2108345;28;20443;-59
2021/08/17 04:09:43;;;;;;;24.07;12.93;;;;;;;10.93;94.54;101580.75;2108366;28;20038;-60
2021/08/17 04:10:46;;;;;;;20.27;13.17;;;;;;;10.92;94.40;101580.78;2099356;28;20635;-59
2021/08/17 04:11:46;;;;;;;25.27;13.82;;;;;;;10.91;94.93;101585.13;2099548;28;20298;-60
2021/08/17 04:12:47;;;;;;;22.40;14.30;;;;;;;10.90;94.38;101577.34;2099282;28;20504;-60
2021/08/17 04:13:47;;;;;;;26.33;13.75;;;;;;;10.90;94.58;101586.06;2099229;28;20107;-60
2021/08/17 04:14:47;;;;;;;17.37;11.53;;;;;;;10.91;94.68;101587.75;2099281;28;20469;-58
2021/08/17 04:15:47;;;;;;;21.83;12.53;;;;;;;10.90;94.84;101586.06;2099215;28;20017;-60
2021/08/17 04:16:48;;;;;;;18.90;10.77;;;;;;;10.90;94.77;101590.41;2099315;28;20025;-60
2021/08/17 04:17:48;;;;;;;21.30;11.90;;;;;;;10.89;94.64;101591.31;2108212;28;20477;-60
2021/08/17 04:18:48;;;;;;;25.03;13.70;;;;;;;10.87;94.84;101590.50;2108276;28;20024;-59
2021/08/17 04:19:49;;;;;;;24.53;14.20;;;;;;;10.85;94.83;101593.19;2108305;28;20058;-60
2021/08/17 04:20:49;;;;;;;19.40;11.43;;;;;;;10.84;94.50;101596.69;2108258;28;20472;-59
2021/08/17 04:21:50;;;;;;;19.00;13.13;;;;;;;10.83;94.87;101594.97;2108208;28;20073;-59
2021/08/17 04:22:50;;;;;;;22.37;11.70;;;;;;;10.84;94.83;101590.63;2099076;28;20040;-59
2021/08/17 04:23:51;;;;;;;26.33;13.77;;;;;;;10.84;94.99;101590.63;2099274;28;20032;-60
2021/08/17 04:24:51;;;;;;;23.98;12.50;;;;;;;10.84;95.11;101591.47;2108189;28;20080;-59
2021/08/17 04:25:52;;;;;;;24.50;14.40;;;;;;;10.89;94.55;101599.16;2108162;28;20522;-59
2021/08/17 04:26:52;;;;;;;24.03;12.90;;;;;;;10.90;94.94;101606.06;2108118;28;20035;-59
2021/08/17 04:27:52;;;;;;;25.53;13.37;;;;;;;10.89;94.72;101604.38;2108241;28;20016;-60
2021/08/17 04:28:53;;;;;;;20.80;12.47;;;;;;;10.91;94.98;101605.16;2108194;28;20027;-59
2021/08/17 04:29:53;;;;;;;17.50;8.88;;;;;;;10.89;94.84;101605.25;2108173;28;20393;-59
2021/08/17 04:30:54;;;;;;;21.43;11.70;;;;;;;10.89;95.20;101607.00;2108141;28;20028;-59
2021/08/17 04:31:54;;;;;;;21.20;11.77;;;;;;;10.92;95.24;101609.50;2108147;28;20020;-60
2021/08/17 04:32:55;;;;;;;25.63;12.10;;;;;;;10.94;95.21;101607.69;2108200;28;20074;-58
2021/08/17 04:33:55;;;;;;;23.40;11.87;;;;;;;10.94;94.93;101618.13;2108096;28;20473;-59
2021/08/17 04:34:55;;;;;;;18.23;11.20;;;;;;;10.92;95.40;101609.50;2108233;28;20043;-60
2021/08/17 04:35:55;;;;;;;17.00;9.97;;;;;;;10.93;95.28;101612.06;2108191;28;20032;-59
2021/08/17 04:36:56;;;;;;;23.83;13.63;;;;;;;10.95;95.71;101612.03;2108070;28;20069;-60